KRICKMQI

Guest
Details From KRIC - Richmond Intl
To KMQI - DARE CO RGNL
Flight Number -
Tags generated
Created
Modified
Stats Distance 123 nm / 228 km
Max Altitude 13,700 ft / 4,176 m
Waypoints 3
Social Downloads 2
Likes 0
Share VATSIM

Download

Looking for another format? Having issues loading an existing format? Contact us
Advertisement - Login to hide

Notes

Basic altitude profile: - Ascent Rate: 2500ft/min - Ascent Speed: 250kts - Cruise Altitude: 35000ft - Cruise Speed: 420kts - Descent Rate: 1500ft/min - Descent Speed: 250kts Options: - Use NATs: yes - Use PACOTS: yes - Use low airways: yes - Use high airways: yes

Route

KRIC KATZN KMQI

ID Type Via Altitude Latitude Longitude Leg Dist Tot Dist Heading (true) Name
O KRIC APT - 0 ft / 0 m 37.50473˚ -77.32011˚ - 0 nm - Richmond Intl
KATZN FIX - 13,700 ft / 4,176 m 36.96868˚ -76.78340˚ 41 nm 41 nm 141° / 142° -
O KMQI APT - 0 ft / 0 m 35.91904˚ -75.69543˚ 82 nm 123 nm 140° / 140° DARE CO RGNL

Altitude Profile

Advertisement - Login to hide

KRIC

Details ICAO KRIC (RIC)
Name Richmond Intl
Region United States
Timezone America/New_York (UTC-4.0)
Stats Elevation 167 ft / 51 m (AMSL)
Location 37.504728° -77.320112°
Runways 3
Magnetic Variation 10.390° W

METAR

KRIC 262154Z 22008KT 10SM FEW040 SCT200 BKN300 28/20 A2987 RMK AO2 SLP117 T02780200

Decode

TAF

TAF KRIC 261720Z 2618/2718 22012G20KT P6SM SCT035 BKN120 TEMPO 2618/2621 BKN035 FM262100 22009KT P6SM VCTS BKN040CB FM270000 21007KT P6SM VCSH BKN040 OVC080 FM270800 22007KT P6SM BKN025 FM271500 23006KT P6SM BKN035

Decode

Departure Runways

ID Width Length Bearing (true) Bearing (mag) Surface Threshold Offset Overrun Length
02 151 ft / 46 m 6,619 ft / 2,018 m 13.39° 23.78° Asphalt 0 ft / 0 m 125 ft / 38 m
07 98 ft / 30 m 5,312 ft / 1,619 m 57.36° 67.75° Asphalt 0 ft / 0 m 200 ft / 61 m
16 151 ft / 46 m 9,027 ft / 2,751 m 147.64° 158.03° Asphalt 0 ft / 0 m 1,001 ft / 305 m
20 151 ft / 46 m 6,619 ft / 2,018 m 193.39° 203.78° Asphalt 0 ft / 0 m 276 ft / 84 m
25 98 ft / 30 m 5,312 ft / 1,619 m 237.36° 247.75° Asphalt 0 ft / 0 m 0 ft / 0 m
34 151 ft / 46 m 9,027 ft / 2,751 m 327.66° 338.05° Asphalt 0 ft / 0 m 1,001 ft / 305 m

KMQI

Details ICAO KMQI
Name DARE CO RGNL
Region United States
Timezone America/New_York (UTC-4.0)
Stats Elevation 14 ft / 4 m (AMSL)
Location 35.919044° -75.695427°
Runways 2
Magnetic Variation 11.010° W

METAR

KMQI 262155Z AUTO 22017G21KT 10SM CLR 28/22 A2992 RMK AO2 T02770222

Decode

TAF

Not found

Destination Runways

ID Width Length Bearing (true) Bearing (mag) Surface Threshold Offset Overrun Length
05 100 ft / 30 m 4,303 ft / 1,312 m 37.92° 48.93° Asphalt 335 ft / 102 m 0 ft / 0 m
17 75 ft / 23 m 3,308 ft / 1,008 m 158.10° 169.11° Asphalt 300 ft / 91 m 0 ft / 0 m
23 100 ft / 30 m 4,303 ft / 1,312 m 217.93° 228.94° Asphalt 300 ft / 91 m 0 ft / 0 m
35 75 ft / 23 m 3,308 ft / 1,008 m 338.10° 349.11° Asphalt 1,000 ft / 305 m 0 ft / 0 m